LETO/TOJ METAR and TAF weather

Enter ICAO airport designator
Station Type Date Time Source
LETO METAR 2021/03/02 03:00 UTC NOAA

LETO 020300Z 01005KT 9999 BKN050 07/05 Q1024 NOSIG


Station Type Date Time Source
LETO Decoded METAR 2021/03/02 03:00 UTC NOAA

Madrid / Torrejon, Spain (LETO) 40-29N 003-27W 611M
Mar 01, 2021 - 10:00 PM EST / 2021.03.02 0300 UTC
Wind: from the N (010 degrees) at 6 MPH (5 KT):0
Visibility: greater than 7 mile(s):0
Sky conditions: mostly cloudy
Temperature: 44 F (7 C)
Dew Point: 41 F (5 C)
Relative Humidity: 87%
Pressure (altimeter): 30.24 in. Hg (1024 hPa)
ob: LETO 020300Z 01005KT 9999 BKN050 07/05 Q1024 NOSIG
cycle: 3

Station Type Date Time Source
LETO TAF 2021/03/01 18:27 UTC NOAA

TAF LETO 011700Z 0118/0218 VRB05KT 9999 SCT030 BKN040 TX13/0215Z TN05/0206Z

Example: see airport list